createdAt,value
2022-10-18T00:02:33.112Z,9.81
2022-10-18T00:05:35.648Z,9.82
2022-10-18T00:08:38.884Z,9.79
2022-10-18T00:11:41.144Z,9.78
2022-10-18T00:14:43.406Z,9.82
2022-10-18T00:17:45.547Z,9.71
2022-10-18T00:20:59.149Z,9.69
2022-10-18T00:24:01.302Z,9.67
2022-10-18T00:27:03.496Z,9.64
2022-10-18T00:30:06.031Z,9.63
2022-10-18T00:33:08.248Z,9.65
2022-10-18T00:36:11.294Z,9.71
2022-10-18T00:39:16.780Z,9.75
2022-10-18T00:42:20.953Z,9.72
2022-10-18T00:45:24.491Z,9.61
2022-10-18T00:48:26.685Z,9.65
2022-10-18T00:51:32.919Z,9.59
2022-10-18T00:54:38.304Z,9.62
2022-10-18T00:57:42.356Z,9.56
2022-10-18T01:00:44.620Z,9.52
2022-10-18T01:03:46.777Z,9.49
2022-10-18T01:07:07.724Z,9.48
2022-10-18T01:10:27.397Z,9.52
2022-10-18T01:13:33.741Z,9.50
2022-10-18T01:16:56.418Z,9.47
2022-10-18T01:20:17.541Z,9.41
2022-10-18T01:23:33.537Z,9.35
2022-10-18T01:27:00.025Z,9.30
2022-10-18T01:30:28.160Z,9.19
2022-10-18T01:33:39.081Z,9.17
2022-10-18T01:36:44.521Z,9.10
2022-10-18T01:39:47.989Z,9.09
2022-10-18T01:42:50.474Z,9.05
2022-10-18T01:45:53.897Z,9.05
2022-10-18T01:48:56.483Z,9.11
2022-10-18T01:51:59.282Z,9.01
2022-10-18T01:55:01.963Z,9.02
2022-10-18T01:58:23.231Z,9.09
2022-10-18T02:01:31.200Z,9.13
2022-10-18T02:04:44.532Z,9.13
2022-10-18T02:07:55.394Z,9.11
2022-10-18T02:11:13.466Z,9.08
2022-10-18T02:14:16.579Z,9.08
2022-10-18T02:17:20.947Z,9.11
2022-10-18T02:20:25.549Z,9.14
2022-10-18T02:23:27.826Z,9.15
2022-10-18T02:26:30.018Z,9.14
2022-10-18T02:29:32.575Z,9.11
2022-10-18T02:32:41.877Z,9.10
2022-10-18T02:35:54.405Z,9.10
2022-10-18T02:39:01.916Z,9.09
2022-10-18T02:42:08.893Z,9.11
2022-10-18T02:45:11.193Z,9.15
2022-10-18T02:48:13.325Z,9.21
2022-10-18T02:51:15.895Z,9.14
2022-10-18T02:54:18.035Z,9.12
2022-10-18T02:57:20.221Z,9.11
2022-10-18T03:00:22.412Z,9.16
2022-10-18T03:03:24.607Z,9.13
2022-10-18T03:06:26.761Z,9.10
2022-10-18T03:09:28.896Z,9.10
2022-10-18T03:12:31.022Z,8.99
2022-10-18T03:15:33.177Z,8.97
2022-10-18T03:18:35.325Z,8.92
2022-10-18T03:21:37.477Z,8.91
2022-10-18T03:24:39.681Z,8.92
2022-10-18T03:27:41.834Z,8.87
2022-10-18T03:30:43.961Z,8.94
2022-10-18T03:33:46.638Z,8.90
2022-10-18T03:36:48.773Z,8.92
2022-10-18T03:39:50.958Z,8.89
2022-10-18T03:42:53.078Z,8.89
2022-10-18T03:45:55.424Z,8.85
2022-10-18T03:48:57.553Z,8.81
2022-10-18T03:51:59.694Z,8.74
2022-10-18T03:55:01.892Z,8.83
2022-10-18T03:58:04.282Z,8.79
2022-10-18T04:01:07.067Z,8.70
2022-10-18T04:04:09.188Z,8.70
2022-10-18T04:07:11.338Z,8.65
2022-10-18T04:10:13.538Z,8.58
2022-10-18T04:13:15.686Z,8.54
2022-10-18T04:16:17.816Z,8.44
2022-10-18T04:19:20.002Z,8.36
2022-10-18T04:22:22.226Z,8.22
2022-10-18T04:25:25.310Z,8.18
2022-10-18T04:28:27.471Z,8.13
2022-10-18T04:31:29.758Z,8.22
2022-10-18T04:34:31.936Z,8.15
2022-10-18T04:37:34.624Z,8.16
2022-10-18T04:40:37.572Z,8.13
2022-10-18T04:43:39.774Z,8.08
2022-10-18T04:46:41.948Z,8.14
2022-10-18T04:49:44.533Z,8.13
2022-10-18T04:52:46.747Z,8.11
2022-10-18T04:55:49.936Z,8.09
2022-10-18T04:58:52.117Z,8.10
2022-10-18T05:01:54.371Z,8.06
2022-10-18T05:04:56.575Z,8.02
2022-10-18T05:07:58.748Z,8.03
2022-10-18T05:11:01.130Z,8.14
2022-10-18T05:14:03.750Z,8.13
2022-10-18T05:17:05.881Z,8.00
2022-10-18T05:20:08.475Z,8.11
2022-10-18T05:23:13.651Z,8.06
2022-10-18T05:26:15.849Z,8.13
2022-10-18T05:29:18.066Z,8.06
2022-10-18T05:32:20.426Z,8.06
2022-10-18T05:35:22.558Z,8.04
2022-10-18T05:38:24.824Z,8.07
2022-10-18T05:41:26.998Z,8.16
2022-10-18T05:44:29.205Z,8.20
2022-10-18T05:47:31.426Z,8.31
2022-10-18T05:50:36.697Z,8.38
2022-10-18T05:53:41.769Z,8.44
2022-10-18T05:56:43.913Z,8.45
2022-10-18T05:59:46.217Z,8.47
2022-10-18T06:02:48.370Z,8.52
2022-10-18T06:05:50.568Z,8.68
2022-10-18T06:08:52.699Z,8.76
2022-10-18T06:11:55.488Z,8.89
2022-10-18T06:14:57.610Z,9.06
2022-10-18T06:17:59.817Z,9.26
2022-10-18T06:21:02.054Z,9.42
2022-10-18T06:24:04.864Z,9.62
2022-10-18T06:27:09.353Z,9.84
2022-10-18T06:30:11.910Z,10.07
2022-10-18T06:33:14.112Z,10.29
2022-10-18T06:36:18.134Z,10.57
2022-10-18T06:39:20.275Z,10.83
2022-10-18T06:42:22.764Z,11.04
2022-10-18T06:45:24.958Z,11.22
2022-10-18T06:48:27.855Z,11.48
2022-10-18T06:51:30.030Z,11.65
2022-10-18T06:54:32.215Z,11.90
2022-10-18T06:57:34.714Z,12.23
2022-10-18T07:00:36.859Z,12.63
2022-10-18T07:03:39.208Z,12.93
2022-10-18T07:06:41.331Z,13.24
2022-10-18T07:09:46.076Z,13.48
2022-10-18T07:12:48.215Z,13.65
2022-10-18T07:16:14.315Z,13.90
2022-10-18T07:19:19.599Z,14.04
2022-10-18T07:22:21.781Z,14.19
2022-10-18T07:25:25.920Z,14.32
2022-10-18T07:28:30.759Z,14.35
2022-10-18T07:31:33.498Z,14.44
2022-10-18T07:34:35.762Z,14.53
2022-10-18T07:37:37.928Z,14.66
2022-10-18T07:40:40.058Z,14.72
2022-10-18T07:43:44.439Z,14.89
2022-10-18T07:46:46.595Z,15.08
2022-10-18T07:49:48.840Z,15.10
2022-10-18T07:52:50.973Z,15.23
2022-10-18T07:55:57.256Z,15.43
2022-10-18T07:58:59.441Z,15.60
2022-10-18T08:02:01.595Z,15.41
2022-10-18T08:05:03.963Z,15.69
2022-10-18T08:08:08.078Z,15.82
2022-10-18T08:11:16.324Z,15.89
2022-10-18T08:14:18.535Z,16.07
2022-10-18T08:17:20.662Z,16.21
2022-10-18T08:20:31.210Z,16.32
2022-10-18T08:23:34.535Z,16.42
2022-10-18T08:26:36.707Z,16.40
2022-10-18T08:29:38.920Z,16.54
2022-10-18T08:32:41.150Z,16.47
2022-10-18T08:35:43.375Z,16.64
2022-10-18T08:38:45.562Z,16.67
2022-10-18T08:41:58.727Z,16.77
2022-10-18T08:45:08.250Z,16.91
2022-10-18T08:48:34.368Z,16.88
2022-10-18T08:51:43.439Z,16.92
2022-10-18T08:55:10.311Z,17.07
2022-10-18T08:58:23.541Z,17.14
2022-10-18T09:01:38.647Z,17.01
2022-10-18T09:04:58.545Z,17.26
2022-10-18T09:08:23.057Z,17.46
2022-10-18T09:11:38.247Z,17.56
2022-10-18T09:15:12.625Z,17.50
2022-10-18T09:18:29.783Z,17.48
2022-10-18T09:21:54.567Z,17.59
2022-10-18T09:25:00.357Z,17.82
2022-10-18T09:28:17.883Z,17.89
2022-10-18T09:31:35.533Z,17.85
2022-10-18T09:34:40.234Z,17.90
2022-10-18T09:37:43.659Z,18.02
2022-10-18T09:40:56.324Z,18.13
2022-10-18T09:44:09.391Z,18.29
2022-10-18T09:47:22.756Z,18.20
2022-10-18T09:50:32.970Z,18.35
2022-10-18T09:54:12.746Z,18.52
2022-10-18T09:57:37.571Z,18.44
2022-10-18T10:00:46.613Z,18.46
2022-10-18T10:03:48.850Z,18.68
2022-10-18T10:06:52.584Z,18.76
2022-10-18T10:10:00.314Z,18.87
2022-10-18T10:13:06.921Z,19.00
2022-10-18T10:16:09.089Z,19.05
2022-10-18T10:19:19.434Z,19.03
2022-10-18T10:22:37.455Z,19.09
2022-10-18T10:25:41.172Z,18.97
2022-10-18T10:28:49.023Z,19.26
2022-10-18T10:32:15.081Z,19.42
2022-10-18T10:39:03.533Z,19.13
2022-10-18T10:42:07.944Z,19.37
2022-10-18T10:45:13.099Z,19.33
2022-10-18T10:48:16.988Z,19.20
2022-10-18T10:51:32.188Z,19.30
2022-10-18T10:54:38.782Z,19.37
2022-10-18T10:57:44.219Z,19.28
2022-10-18T11:00:46.378Z,19.17
2022-10-18T11:03:54.056Z,19.12
2022-10-18T11:07:15.175Z,19.25
2022-10-18T11:10:19.876Z,19.40
2022-10-18T11:13:41.717Z,19.58
2022-10-18T11:17:08.522Z,19.48
2022-10-18T11:20:16.728Z,19.51
2022-10-18T11:23:19.561Z,19.61
2022-10-18T11:26:40.962Z,19.49
2022-10-18T11:29:48.611Z,19.37
2022-10-18T11:33:05.024Z,19.20
2022-10-18T11:36:20.810Z,19.41
2022-10-18T11:39:38.035Z,19.39
2022-10-18T11:43:03.161Z,19.60
2022-10-18T11:46:34.256Z,19.75
2022-10-18T11:49:45.633Z,19.62
2022-10-18T11:53:15.679Z,19.62
2022-10-18T11:56:33.299Z,19.56
2022-10-18T12:00:01.737Z,19.49
2022-10-18T12:03:45.592Z,19.76
2022-10-18T12:06:50.664Z,19.88
2022-10-18T12:09:55.049Z,19.87
2022-10-18T12:13:02.143Z,19.89
2022-10-18T12:16:05.366Z,19.83
2022-10-18T12:19:14.785Z,19.70
2022-10-18T12:22:24.266Z,19.66
2022-10-18T12:25:28.617Z,19.51
2022-10-18T12:28:34.069Z,19.51
2022-10-18T12:31:59.683Z,19.51
2022-10-18T12:35:06.409Z,19.45
2022-10-18T12:38:22.309Z,19.54
2022-10-18T12:41:30.512Z,19.57
2022-10-18T12:44:34.861Z,19.54
2022-10-18T12:47:37.955Z,19.66
2022-10-18T12:50:42.709Z,19.57
2022-10-18T12:53:51.394Z,19.57
2022-10-18T12:56:53.533Z,19.58
2022-10-18T12:59:55.667Z,19.55
2022-10-18T13:03:27.066Z,19.57
2022-10-18T13:06:58.034Z,19.58
2022-10-18T13:10:12.898Z,19.43
2022-10-18T13:13:38.714Z,19.31
2022-10-18T13:17:06.952Z,19.45
2022-10-18T13:20:25.620Z,19.48
2022-10-18T13:23:37.049Z,19.48
2022-10-18T13:26:59.063Z,19.40
2022-10-18T13:30:30.808Z,19.31
2022-10-18T13:33:39.275Z,19.37
2022-10-18T13:36:42.302Z,19.42
2022-10-18T13:39:44.949Z,19.44
2022-10-18T13:42:47.099Z,19.40
2022-10-18T13:45:56.267Z,19.38
2022-10-18T13:49:29.349Z,19.25
2022-10-18T13:52:31.818Z,19.24
2022-10-18T13:55:56.017Z,19.22
2022-10-18T13:59:14.959Z,19.10
2022-10-18T14:02:51.011Z,19.17
2022-10-18T14:06:00.432Z,19.11
2022-10-18T14:09:14.266Z,19.00
2022-10-18T14:12:36.952Z,19.02
2022-10-18T14:15:39.517Z,18.97
2022-10-18T14:18:42.673Z,18.90
2022-10-18T14:21:51.353Z,18.88
2022-10-18T14:24:56.022Z,18.94
2022-10-18T14:28:15.556Z,18.91
2022-10-18T14:31:19.843Z,18.83
2022-10-18T14:34:22.312Z,18.74
2022-10-18T14:37:29.300Z,18.64
2022-10-18T14:40:39.869Z,18.50
2022-10-18T14:43:42.840Z,18.49
2022-10-18T14:46:50.625Z,18.50
2022-10-18T14:49:57.844Z,18.45
2022-10-18T14:53:06.013Z,18.51
2022-10-18T14:56:21.291Z,18.42
2022-10-18T14:59:26.036Z,18.31
2022-10-18T15:02:29.737Z,18.19
2022-10-18T15:05:32.585Z,18.07
2022-10-18T15:08:44.278Z,17.99
2022-10-18T15:11:47.092Z,18.00
2022-10-18T15:14:50.224Z,17.94
2022-10-18T15:17:52.548Z,17.82
2022-10-18T15:21:17.696Z,17.72
2022-10-18T15:24:21.313Z,17.44
2022-10-18T15:27:30.208Z,17.23
2022-10-18T15:30:42.696Z,17.01
2022-10-18T15:33:44.838Z,16.76
2022-10-18T15:36:48.401Z,16.53
2022-10-18T15:40:39.946Z,16.36
2022-10-18T15:43:41.963Z,16.17
2022-10-18T15:46:44.095Z,15.76
2022-10-18T15:49:46.549Z,15.66
2022-10-18T15:52:48.724Z,15.51
2022-10-18T15:56:03.141Z,15.20
2022-10-18T15:59:21.985Z,14.95
2022-10-18T16:02:25.268Z,14.90
2022-10-18T16:05:27.874Z,14.55
2022-10-18T16:08:32.019Z,14.49
2022-10-18T16:11:34.150Z,14.35
2022-10-18T16:14:36.298Z,14.45
2022-10-18T16:17:38.470Z,14.06
2022-10-18T16:20:40.626Z,13.99
2022-10-18T16:23:42.781Z,13.76
2022-10-18T16:26:45.022Z,13.52
2022-10-18T16:29:47.160Z,13.02
2022-10-18T16:32:49.317Z,13.00
2022-10-18T16:35:52.256Z,13.02
2022-10-18T16:38:55.416Z,12.99
2022-10-18T16:41:57.578Z,13.07
2022-10-18T16:44:59.728Z,12.85
2022-10-18T16:48:01.926Z,12.85
2022-10-18T16:51:04.184Z,12.61
2022-10-18T16:54:06.333Z,12.34
2022-10-18T16:57:09.634Z,12.37
2022-10-18T17:00:20.990Z,12.37
2022-10-18T17:03:23.187Z,12.26
2022-10-18T17:06:28.102Z,12.27
2022-10-18T17:09:30.270Z,12.30
2022-10-18T17:12:32.678Z,12.07
2022-10-18T17:15:35.262Z,11.82
2022-10-18T17:18:37.472Z,12.03
2022-10-18T17:21:39.676Z,11.93
2022-10-18T17:24:41.861Z,11.56
2022-10-18T17:27:44.439Z,11.38
2022-10-18T17:30:47.241Z,11.52
2022-10-18T17:33:49.614Z,11.56
2022-10-18T17:36:51.783Z,11.73
2022-10-18T17:39:54.041Z,11.75
2022-10-18T17:42:56.425Z,11.72
2022-10-18T17:45:58.728Z,11.48
2022-10-18T17:49:00.907Z,11.25
2022-10-18T17:52:06.883Z,11.25
2022-10-18T17:55:10.066Z,11.23
2022-10-18T17:58:12.213Z,10.83
2022-10-18T18:01:19.025Z,10.79
2022-10-18T18:04:21.227Z,10.83
2022-10-18T18:07:23.409Z,10.83
2022-10-18T18:10:25.666Z,10.96
2022-10-18T18:13:27.818Z,11.00
2022-10-18T18:16:30.282Z,11.04
2022-10-18T18:19:32.510Z,10.90
2022-10-18T18:22:37.001Z,10.99
2022-10-18T18:25:42.421Z,11.15
2022-10-18T18:28:45.094Z,11.18
2022-10-18T18:31:47.638Z,10.65
2022-10-18T18:34:49.816Z,10.41
2022-10-18T18:37:52.105Z,10.60
2022-10-18T18:41:04.532Z,10.45
2022-10-18T18:44:06.773Z,10.52
2022-10-18T18:47:13.150Z,10.60
2022-10-18T18:50:15.692Z,10.62
2022-10-18T18:53:18.669Z,10.56
2022-10-18T18:56:23.762Z,10.53
2022-10-18T18:59:26.269Z,10.42
2022-10-18T19:02:28.553Z,10.19
2022-10-18T19:05:32.018Z,10.19
2022-10-18T19:08:38.587Z,10.29
2022-10-18T19:11:40.774Z,10.34
2022-10-18T19:14:43.210Z,10.33
2022-10-18T19:17:45.754Z,10.27
2022-10-18T19:20:47.943Z,10.23
2022-10-18T19:23:50.371Z,10.27
2022-10-18T19:26:57.703Z,10.27
2022-10-18T19:29:59.996Z,10.33
2022-10-18T19:33:04.698Z,10.16
2022-10-18T19:36:07.547Z,9.76
2022-10-18T19:39:18.223Z,9.84
2022-10-18T19:42:26.090Z,9.90
2022-10-18T19:45:29.863Z,9.98
2022-10-18T19:48:31.977Z,9.63
2022-10-18T19:51:34.187Z,9.77
2022-10-18T19:54:36.349Z,9.79
2022-10-18T19:57:38.478Z,9.71
2022-10-18T20:00:40.631Z,9.63
2022-10-18T20:03:43.019Z,9.71
2022-10-18T20:06:45.445Z,9.59
2022-10-18T20:09:48.102Z,9.63
2022-10-18T20:12:50.229Z,9.77
2022-10-18T20:15:53.629Z,9.44
2022-10-18T20:18:57.941Z,9.40
2022-10-18T20:22:00.097Z,9.44
2022-10-18T20:25:02.216Z,9.33
2022-10-18T20:28:05.092Z,9.36
2022-10-18T20:31:08.558Z,9.47
2022-10-18T20:34:12.119Z,9.46
2022-10-18T20:37:14.665Z,9.47
2022-10-18T20:40:16.870Z,9.35
2022-10-18T20:43:19.036Z,9.41
2022-10-18T20:46:21.956Z,9.43
2022-10-18T20:49:24.185Z,9.40
2022-10-18T20:52:26.439Z,9.32
2022-10-18T20:55:29.227Z,9.13
2022-10-18T20:58:31.494Z,9.17
2022-10-18T21:01:34.516Z,9.23
2022-10-18T21:04:38.837Z,9.23
2022-10-18T21:07:43.628Z,9.28
2022-10-18T21:10:45.754Z,9.17
2022-10-18T21:13:55.799Z,8.96
2022-10-18T21:16:57.907Z,8.98
2022-10-18T21:20:01.002Z,9.07
2022-10-18T21:23:03.179Z,9.01
2022-10-18T21:26:06.167Z,9.08
2022-10-18T21:29:08.576Z,9.15
2022-10-18T21:32:10.772Z,9.12
2022-10-18T21:35:12.928Z,9.16
2022-10-18T21:38:15.042Z,9.13
2022-10-18T21:41:18.733Z,8.86
2022-10-18T21:44:21.011Z,8.95
2022-10-18T21:47:23.147Z,9.03
2022-10-18T21:50:25.285Z,9.03
2022-10-18T21:53:27.641Z,8.97
2022-10-18T21:56:31.876Z,8.80
2022-10-18T21:59:34.049Z,8.86
2022-10-18T22:02:36.266Z,8.89
2022-10-18T22:05:38.650Z,8.90
2022-10-18T22:08:42.934Z,8.88
2022-10-18T22:11:49.852Z,8.95
2022-10-18T22:14:51.979Z,9.19
2022-10-18T22:17:54.106Z,9.25
2022-10-18T22:21:00.619Z,9.19
2022-10-18T22:24:07.668Z,9.19
2022-10-18T22:27:09.834Z,9.32
2022-10-18T22:30:11.944Z,9.43
2022-10-18T22:33:14.063Z,9.51
2022-10-18T22:36:16.189Z,9.48
2022-10-18T22:39:18.436Z,9.57
2022-10-18T22:42:20.534Z,9.67
2022-10-18T22:45:22.705Z,9.83
2022-10-18T22:48:24.841Z,9.86
2022-10-18T22:51:27.340Z,9.79
2022-10-18T22:54:29.559Z,9.81
2022-10-18T22:57:31.768Z,9.89
2022-10-18T23:00:33.937Z,9.99
2022-10-18T23:03:36.742Z,10.17
2022-10-18T23:06:40.030Z,10.05
2022-10-18T23:09:42.167Z,10.03
2022-10-18T23:12:44.334Z,10.17
2022-10-18T23:15:46.459Z,10.24
2022-10-18T23:18:50.976Z,10.30
2022-10-18T23:21:53.107Z,10.40
2022-10-18T23:24:55.226Z,10.24
2022-10-18T23:27:57.645Z,10.21
2022-10-18T23:30:59.779Z,10.12
2022-10-18T23:34:04.008Z,9.99
2022-10-18T23:37:06.138Z,9.90
2022-10-18T23:40:09.182Z,9.91
2022-10-18T23:43:11.284Z,10.02
2022-10-18T23:46:14.859Z,10.03
2022-10-18T23:49:16.977Z,9.96
2022-10-18T23:52:19.090Z,9.95
2022-10-18T23:55:21.195Z,9.76
2022-10-18T23:58:24.154Z,9.67
